createdAt,value
2024-01-15T00:00:25.318Z,84.41
2024-01-15T00:00:57.250Z,84.49
2024-01-15T00:01:29.186Z,84.29
2024-01-15T00:02:01.003Z,84.38
2024-01-15T00:02:32.809Z,84.87
2024-01-15T00:03:05.039Z,84.75
2024-01-15T00:03:37.001Z,85.03
2024-01-15T00:04:08.964Z,84.71
2024-01-15T00:04:41.678Z,85.00
2024-01-15T00:05:13.514Z,84.97
2024-01-15T00:05:45.360Z,84.54
2024-01-15T00:06:17.320Z,84.64
2024-01-15T00:06:50.339Z,84.90
2024-01-15T00:07:22.304Z,84.75
2024-01-15T00:07:54.129Z,84.35
2024-01-15T00:08:25.976Z,85.00
2024-01-15T00:08:59.364Z,85.03
2024-01-15T00:09:31.286Z,84.81
2024-01-15T00:10:03.629Z,85.08
2024-01-15T00:10:35.448Z,84.52
2024-01-15T00:11:07.252Z,84.51
2024-01-15T00:11:39.116Z,84.30
2024-01-15T00:12:11.026Z,84.23
2024-01-15T00:12:43.080Z,84.36
2024-01-15T00:13:14.935Z,84.71
2024-01-15T00:13:47.200Z,84.17
2024-01-15T00:14:21.434Z,84.41
2024-01-15T00:14:53.424Z,84.53
2024-01-15T00:15:25.250Z,84.67
2024-01-15T00:15:57.330Z,84.16
2024-01-15T00:16:29.169Z,84.12
2024-01-15T00:17:00.973Z,84.48
2024-01-15T00:17:32.813Z,84.05
2024-01-15T00:18:05.107Z,83.93
2024-01-15T00:18:37.249Z,84.11
2024-01-15T00:19:09.279Z,84.00
2024-01-15T00:19:41.371Z,84.51
2024-01-15T00:20:13.833Z,83.95
2024-01-15T00:20:45.619Z,84.65
2024-01-15T00:21:17.479Z,84.00
2024-01-15T00:21:49.484Z,84.36
2024-01-15T00:22:21.411Z,84.27
2024-01-15T00:22:53.190Z,84.16
2024-01-15T00:23:24.988Z,83.74
2024-01-15T00:23:56.781Z,83.66
2024-01-15T00:24:28.639Z,83.99
2024-01-15T00:25:00.456Z,83.69
2024-01-15T00:25:32.465Z,83.81
2024-01-15T00:26:04.849Z,83.87
2024-01-15T00:26:37.527Z,83.98
2024-01-15T00:27:09.938Z,84.03
2024-01-15T00:27:42.024Z,83.51
2024-01-15T00:28:13.839Z,83.86
2024-01-15T00:28:45.677Z,84.23
2024-01-15T00:29:17.540Z,83.39
2024-01-15T00:29:49.372Z,83.48
2024-01-15T00:30:21.634Z,83.80
2024-01-15T00:30:53.721Z,83.66
2024-01-15T00:31:25.663Z,83.62
2024-01-15T00:31:57.536Z,83.68
2024-01-15T00:32:29.433Z,83.20
2024-01-15T00:33:01.351Z,83.50
2024-01-15T00:33:33.420Z,83.01
2024-01-15T00:34:05.404Z,83.30
2024-01-15T00:34:37.379Z,82.68
2024-01-15T00:35:09.521Z,83.15
2024-01-15T00:35:42.107Z,83.28
2024-01-15T00:36:15.510Z,82.71
2024-01-15T00:36:47.445Z,82.75
2024-01-15T00:37:19.243Z,82.76
2024-01-15T00:37:51.027Z,83.10
2024-01-15T00:38:22.883Z,82.88
2024-01-15T00:38:55.124Z,82.49
2024-01-15T00:39:27.601Z,83.05
2024-01-15T00:39:59.438Z,83.00
2024-01-15T00:40:31.201Z,82.68
2024-01-15T00:41:03.992Z,82.55
2024-01-15T00:41:35.765Z,82.39
2024-01-15T00:42:07.692Z,82.92
2024-01-15T00:42:39.650Z,82.18
2024-01-15T00:43:11.541Z,82.98
2024-01-15T00:43:43.338Z,82.80
2024-01-15T00:44:15.188Z,82.99
2024-01-15T00:44:47.007Z,82.67
2024-01-15T00:45:19.063Z,82.71
2024-01-15T00:45:51.018Z,83.03
2024-01-15T00:46:23.121Z,82.88
2024-01-15T00:46:54.940Z,83.23
2024-01-15T00:47:27.244Z,82.72
2024-01-15T00:48:00.742Z,82.59
2024-01-15T00:48:33.191Z,82.98
2024-01-15T00:49:05.372Z,82.78
2024-01-15T00:49:37.292Z,83.26
2024-01-15T00:50:09.634Z,83.24
2024-01-15T00:50:41.402Z,83.45
2024-01-15T00:51:13.278Z,83.13
2024-01-15T00:51:45.236Z,82.67
2024-01-15T00:52:17.159Z,82.93
2024-01-15T00:52:48.968Z,83.25
2024-01-15T00:53:23.164Z,83.24
2024-01-15T00:53:55.015Z,83.19
2024-01-15T00:54:27.615Z,83.24
2024-01-15T00:54:59.502Z,82.76
2024-01-15T00:55:31.324Z,82.80
2024-01-15T00:56:04.231Z,82.87
2024-01-15T00:56:36.156Z,82.92
2024-01-15T00:57:08.039Z,82.73
2024-01-15T00:57:41.467Z,83.00
2024-01-15T00:58:13.327Z,83.50
2024-01-15T00:58:45.125Z,83.48
2024-01-15T00:59:17.006Z,82.73
2024-01-15T00:59:49.357Z,83.20
2024-01-15T01:00:21.378Z,83.06
2024-01-15T01:00:53.379Z,83.29
2024-01-15T01:01:25.325Z,83.08
2024-01-15T01:01:57.338Z,83.27
2024-01-15T01:02:29.180Z,83.16
2024-01-15T01:03:01.099Z,82.51
2024-01-15T01:03:33.057Z,83.43
2024-01-15T01:04:05.238Z,83.60
2024-01-15T01:04:37.175Z,82.98
2024-01-15T01:05:09.044Z,83.60
2024-01-15T01:05:41.061Z,82.97
2024-01-15T01:06:12.933Z,83.50
2024-01-15T01:06:44.843Z,83.63
2024-01-15T01:07:16.773Z,83.50
2024-01-15T01:07:48.602Z,82.78
2024-01-15T01:08:20.379Z,83.62
2024-01-15T01:08:52.198Z,83.55
2024-01-15T01:09:24.088Z,83.45
2024-01-15T01:09:56.589Z,83.43
2024-01-15T01:10:28.938Z,83.68
2024-01-15T01:11:00.832Z,83.26
2024-01-15T01:11:32.606Z,83.40
2024-01-15T01:12:04.632Z,83.58
2024-01-15T01:12:36.483Z,83.25
2024-01-15T01:13:08.379Z,83.28
2024-01-15T01:13:40.338Z,83.51
2024-01-15T01:14:12.157Z,83.46
2024-01-15T01:14:43.982Z,84.03
2024-01-15T01:15:15.844Z,83.18
2024-01-15T01:15:47.761Z,83.64
2024-01-15T01:16:19.569Z,83.33
2024-01-15T01:16:51.345Z,84.04
2024-01-15T01:17:23.924Z,83.55
2024-01-15T01:17:56.076Z,84.03
2024-01-15T01:18:28.204Z,83.83
2024-01-15T01:19:00.217Z,83.63
2024-01-15T01:19:32.663Z,83.98
2024-01-15T01:20:07.337Z,83.99
2024-01-15T01:20:39.451Z,83.25
2024-01-15T01:21:11.448Z,83.10
2024-01-15T01:21:43.310Z,83.40
2024-01-15T01:22:15.149Z,84.26
2024-01-15T01:22:47.008Z,83.49
2024-01-15T01:23:19.080Z,83.31
2024-01-15T01:23:50.876Z,83.64
2024-01-15T01:24:22.755Z,83.53
2024-01-15T01:24:54.617Z,84.10
2024-01-15T01:25:26.433Z,84.12
2024-01-15T01:25:58.321Z,84.18
2024-01-15T01:26:30.122Z,83.56
2024-01-15T01:27:01.981Z,83.57
2024-01-15T01:27:33.970Z,84.03
2024-01-15T01:28:05.906Z,83.84
2024-01-15T01:28:37.772Z,83.45
2024-01-15T01:29:10.136Z,83.31
2024-01-15T01:29:41.965Z,84.20
2024-01-15T01:30:13.989Z,83.85
2024-01-15T01:30:46.033Z,84.06
2024-01-15T01:31:18.009Z,83.34
2024-01-15T01:31:50.230Z,83.40
2024-01-15T01:32:22.023Z,83.78
2024-01-15T01:32:53.839Z,83.70
2024-01-15T01:33:25.775Z,83.24
2024-01-15T01:33:57.721Z,83.40
2024-01-15T01:34:32.892Z,82.94
2024-01-15T01:35:06.452Z,83.57
2024-01-15T01:35:38.598Z,83.05
2024-01-15T01:36:10.952Z,83.24
2024-01-15T01:36:44.087Z,83.47
2024-01-15T01:37:15.951Z,83.43
2024-01-15T01:37:47.778Z,83.70
2024-01-15T01:38:19.633Z,83.62
2024-01-15T01:38:51.534Z,83.42
2024-01-15T01:39:23.877Z,83.16
2024-01-15T01:39:55.772Z,83.09
2024-01-15T01:40:27.725Z,83.23
2024-01-15T01:40:59.557Z,83.85
2024-01-15T01:41:31.353Z,83.49
2024-01-15T01:42:03.171Z,83.37
2024-01-15T01:42:35.040Z,83.67
2024-01-15T01:43:06.955Z,83.29
2024-01-15T01:43:38.739Z,83.75
2024-01-15T01:44:10.500Z,84.17
2024-01-15T01:44:42.535Z,83.43
2024-01-15T01:45:14.380Z,83.43
2024-01-15T01:45:46.399Z,84.15
2024-01-15T01:46:18.784Z,83.87
2024-01-15T01:46:50.807Z,83.78
2024-01-15T01:47:22.803Z,83.19
2024-01-15T01:47:54.858Z,82.93
2024-01-15T01:48:27.573Z,83.26
2024-01-15T01:49:02.728Z,82.84
2024-01-15T01:49:37.068Z,83.11
2024-01-15T01:50:09.527Z,83.58
2024-01-15T01:50:41.477Z,83.11
2024-01-15T01:51:13.398Z,82.97
2024-01-15T01:51:46.116Z,83.04
2024-01-15T01:52:17.917Z,82.56
2024-01-15T01:52:50.368Z,82.87
2024-01-15T01:53:23.259Z,82.81
2024-01-15T01:53:55.115Z,82.90
2024-01-15T01:54:32.456Z,82.52
2024-01-15T01:55:07.202Z,83.72
2024-01-15T01:55:40.263Z,84.25
2024-01-15T01:56:12.985Z,83.88
2024-01-15T01:56:44.993Z,83.48
2024-01-15T01:57:19.085Z,84.63
2024-01-15T01:57:52.259Z,83.74
2024-01-15T01:58:24.303Z,83.62
2024-01-15T01:58:56.363Z,83.73
2024-01-15T01:59:28.816Z,83.64
2024-01-15T02:00:01.337Z,83.28
2024-01-15T02:00:36.301Z,84.05
2024-01-15T02:01:08.769Z,83.43
2024-01-15T02:01:42.136Z,82.89
2024-01-15T02:02:14.814Z,82.75
2024-01-15T02:02:46.694Z,83.49
2024-01-15T02:03:18.614Z,82.65
2024-01-15T02:03:50.635Z,83.68
2024-01-15T02:04:25.657Z,83.49
2024-01-15T02:04:57.690Z,83.31
2024-01-15T02:05:31.331Z,83.73
2024-01-15T02:06:03.141Z,84.12
2024-01-15T02:06:35.345Z,83.44
2024-01-15T02:07:07.483Z,84.16
2024-01-15T02:07:39.638Z,83.54
2024-01-15T02:08:11.475Z,84.08
2024-01-15T02:08:45.055Z,83.87
2024-01-15T02:09:16.917Z,84.73
2024-01-15T02:09:49.046Z,84.00
2024-01-15T02:10:21.049Z,84.53
2024-01-15T02:10:52.822Z,84.46
2024-01-15T02:11:24.931Z,83.72
2024-01-15T02:11:57.198Z,83.64
2024-01-15T02:12:29.064Z,84.18
2024-01-15T02:13:01.072Z,82.84
2024-01-15T02:13:32.886Z,82.99
2024-01-15T02:14:04.760Z,83.53
2024-01-15T02:14:36.533Z,83.50
2024-01-15T02:15:08.768Z,83.84
2024-01-15T02:15:41.355Z,83.54
2024-01-15T02:16:13.139Z,82.95
2024-01-15T02:16:44.966Z,83.32
2024-01-15T02:17:16.845Z,83.12
2024-01-15T02:18:02.986Z,83.49
2024-01-15T02:18:45.579Z,83.04
2024-01-15T02:19:18.506Z,83.39
2024-01-15T02:19:51.591Z,83.60
2024-01-15T02:20:23.656Z,83.60
2024-01-15T02:20:55.897Z,82.84
2024-01-15T02:21:29.845Z,82.77
2024-01-15T02:22:01.719Z,82.59
2024-01-15T02:22:33.581Z,82.73
2024-01-15T02:23:11.991Z,83.58
2024-01-15T02:23:43.848Z,82.49
2024-01-15T02:24:15.749Z,82.54
2024-01-15T02:24:47.652Z,82.96
2024-01-15T02:25:20.544Z,82.45
2024-01-15T02:25:52.607Z,82.91
2024-01-15T02:26:24.621Z,82.36
2024-01-15T02:26:56.442Z,82.41
2024-01-15T02:27:28.294Z,82.45
2024-01-15T02:28:00.178Z,83.00
2024-01-15T02:28:33.602Z,82.14
2024-01-15T02:29:08.051Z,83.06
2024-01-15T02:29:40.463Z,82.30
2024-01-15T02:30:15.206Z,82.74
2024-01-15T02:30:47.237Z,82.68
2024-01-15T02:31:19.384Z,82.03
2024-01-15T02:31:51.308Z,82.29
2024-01-15T02:32:23.126Z,82.46
2024-01-15T02:32:55.011Z,82.66
2024-01-15T02:33:26.970Z,81.60
2024-01-15T02:33:59.168Z,82.32
2024-01-15T02:34:36.147Z,82.46
2024-01-15T02:35:08.228Z,81.83
2024-01-15T02:35:40.328Z,82.32
2024-01-15T02:36:12.198Z,81.69
2024-01-15T02:36:44.184Z,81.68
2024-01-15T02:37:16.047Z,81.85
2024-01-15T02:37:47.888Z,82.29
2024-01-15T02:38:20.251Z,81.42
2024-01-15T02:38:52.056Z,82.00
2024-01-15T02:39:23.955Z,81.90
2024-01-15T02:39:55.981Z,82.70
2024-01-15T02:40:27.744Z,82.65
2024-01-15T02:41:00.022Z,82.45
2024-01-15T02:41:31.835Z,83.34
2024-01-15T02:42:03.705Z,82.97
2024-01-15T02:42:35.963Z,83.08
2024-01-15T02:43:07.791Z,83.23
2024-01-15T02:43:39.583Z,83.30
2024-01-15T02:44:11.441Z,82.64
2024-01-15T02:44:43.304Z,83.49
2024-01-15T02:45:15.156Z,83.39
2024-01-15T02:45:48.076Z,83.17
2024-01-15T02:46:20.048Z,82.33
2024-01-15T02:46:52.288Z,82.30
2024-01-15T02:47:24.058Z,82.23
2024-01-15T02:47:55.968Z,81.47
2024-01-15T02:48:27.976Z,81.68
2024-01-15T02:49:00.050Z,80.85
2024-01-15T02:49:33.629Z,81.05
2024-01-15T02:50:06.330Z,81.03
2024-01-15T02:50:38.154Z,81.23
2024-01-15T02:51:10.131Z,80.68
2024-01-15T02:51:42.086Z,80.76
2024-01-15T02:52:13.922Z,81.78
2024-01-15T02:52:45.689Z,82.02
2024-01-15T02:53:17.526Z,81.08
2024-01-15T02:53:51.454Z,81.90
2024-01-15T02:54:23.390Z,82.26
2024-01-15T02:54:55.255Z,82.08
2024-01-15T02:55:27.091Z,81.44
2024-01-15T02:55:58.891Z,81.17
2024-01-15T02:56:30.660Z,82.16
2024-01-15T02:57:02.529Z,82.04
2024-01-15T02:57:34.687Z,81.75
2024-01-15T02:58:06.543Z,81.96
2024-01-15T02:58:38.326Z,82.39
2024-01-15T02:59:10.118Z,81.72
2024-01-15T02:59:41.962Z,82.14
2024-01-15T03:00:14.101Z,81.61
2024-01-15T03:00:47.438Z,82.29
2024-01-15T03:01:23.193Z,82.24
2024-01-15T03:01:55.140Z,82.07
2024-01-15T03:02:27.060Z,81.36
2024-01-15T03:02:58.988Z,81.70
2024-01-15T03:03:30.926Z,82.16
2024-01-15T03:04:02.961Z,80.94
2024-01-15T03:04:34.914Z,81.79
2024-01-15T03:05:08.784Z,82.01
2024-01-15T03:05:40.708Z,81.79
2024-01-15T03:06:12.701Z,81.61
2024-01-15T03:06:44.638Z,81.85
2024-01-15T03:07:16.973Z,81.37
2024-01-15T03:07:49.245Z,81.72
2024-01-15T03:08:21.076Z,80.69
2024-01-15T03:08:52.923Z,81.10
2024-01-15T03:09:24.938Z,80.85
2024-01-15T03:09:56.826Z,80.80
2024-01-15T03:10:28.674Z,81.20
2024-01-15T03:11:00.542Z,80.96
2024-01-15T03:11:39.116Z,80.65
2024-01-15T03:12:12.189Z,80.37
2024-01-15T03:12:44.265Z,81.12
2024-01-15T03:13:16.233Z,81.09
2024-01-15T03:13:48.058Z,80.58
2024-01-15T03:14:19.935Z,80.63
2024-01-15T03:14:51.787Z,80.34
2024-01-15T03:15:23.618Z,81.48
2024-01-15T03:15:55.986Z,81.39
2024-01-15T03:16:27.872Z,81.38
2024-01-15T03:16:59.816Z,81.68
2024-01-15T03:17:31.694Z,81.05
2024-01-15T03:18:03.604Z,81.78
2024-01-15T03:18:35.732Z,81.47
2024-01-15T03:19:07.729Z,81.50
2024-01-15T03:19:39.721Z,81.45
2024-01-15T03:20:12.189Z,81.83
2024-01-15T03:20:43.983Z,81.21
2024-01-15T03:21:15.813Z,81.28
2024-01-15T03:21:47.717Z,81.02
2024-01-15T03:22:19.574Z,82.03
2024-01-15T03:22:51.328Z,80.98
2024-01-15T03:23:23.082Z,81.99
2024-01-15T03:23:54.976Z,82.27
2024-01-15T03:24:26.774Z,81.65
2024-01-15T03:24:59.315Z,81.82
2024-01-15T03:25:31.135Z,81.71
2024-01-15T03:26:02.982Z,82.53
2024-01-15T03:26:34.811Z,82.13
2024-01-15T03:27:06.905Z,82.07
2024-01-15T03:27:38.795Z,81.80
2024-01-15T03:28:10.666Z,81.61
2024-01-15T03:28:42.437Z,80.81
2024-01-15T03:29:14.230Z,80.77
2024-01-15T03:29:45.992Z,80.74
2024-01-15T03:30:17.943Z,80.49
2024-01-15T03:30:49.888Z,80.56
2024-01-15T03:31:21.820Z,79.72
2024-01-15T03:31:53.854Z,80.47
2024-01-15T03:32:25.714Z,79.64
2024-01-15T03:32:57.571Z,80.23
2024-01-15T03:33:29.572Z,79.40
2024-01-15T03:34:01.645Z,80.01
2024-01-15T03:34:33.643Z,80.26
2024-01-15T03:35:05.880Z,79.77
2024-01-15T03:35:37.794Z,79.62
2024-01-15T03:36:10.139Z,79.97
2024-01-15T03:36:42.054Z,79.67
2024-01-15T03:37:13.901Z,79.62
2024-01-15T03:37:45.802Z,79.84
2024-01-15T03:38:17.624Z,79.58
2024-01-15T03:38:49.385Z,80.73
2024-01-15T03:39:21.256Z,80.11
2024-01-15T03:39:53.214Z,80.76
2024-01-15T03:40:25.299Z,80.66
2024-01-15T03:40:57.137Z,80.41
2024-01-15T03:41:29.215Z,80.93
2024-01-15T03:42:00.989Z,80.53
2024-01-15T03:42:32.904Z,81.02
2024-01-15T03:43:05.020Z,81.79
2024-01-15T03:43:36.839Z,82.24
2024-01-15T03:44:08.673Z,81.45
2024-01-15T03:44:40.527Z,81.47
2024-01-15T03:45:12.371Z,82.03
2024-01-15T03:45:44.242Z,81.68
2024-01-15T03:46:16.029Z,81.95
2024-01-15T03:46:47.777Z,81.42
2024-01-15T03:47:19.557Z,82.19
2024-01-15T03:47:51.578Z,81.08
2024-01-15T03:48:23.687Z,81.70
2024-01-15T03:48:55.707Z,81.07
2024-01-15T03:49:27.733Z,80.86
2024-01-15T03:49:59.641Z,81.22
2024-01-15T03:50:31.415Z,81.42
2024-01-15T03:51:03.311Z,81.32
2024-01-15T03:51:35.247Z,81.30
2024-01-15T03:52:07.047Z,80.56
2024-01-15T03:52:38.988Z,81.64
2024-01-15T03:53:10.759Z,81.06
2024-01-15T03:53:42.556Z,81.25
2024-01-15T03:54:15.313Z,81.40
2024-01-15T03:54:48.472Z,82.26
2024-01-15T03:55:20.434Z,82.10
2024-01-15T03:55:52.760Z,81.59
2024-01-15T03:56:24.634Z,82.34
2024-01-15T03:56:56.483Z,81.88
2024-01-15T03:57:28.381Z,82.69
2024-01-15T03:58:00.378Z,82.23
2024-01-15T03:58:32.312Z,81.78
2024-01-15T03:59:04.146Z,81.86
2024-01-15T03:59:36.045Z,82.15
2024-01-15T04:00:08.866Z,82.12
2024-01-15T04:00:40.771Z,81.80
2024-01-15T04:01:13.286Z,82.77
2024-01-15T04:01:54.414Z,81.41
2024-01-15T04:02:26.222Z,82.28
2024-01-15T04:02:57.994Z,81.33
2024-01-15T04:03:29.986Z,81.83
2024-01-15T04:04:01.936Z,82.14
2024-01-15T04:04:33.911Z,81.57
2024-01-15T04:05:06.093Z,81.76
2024-01-15T04:05:37.942Z,82.23
2024-01-15T04:06:09.825Z,81.59
2024-01-15T04:06:41.754Z,82.93
2024-01-15T04:07:13.796Z,82.84
2024-01-15T04:07:45.711Z,82.21
2024-01-15T04:08:17.527Z,81.96
2024-01-15T04:08:49.407Z,81.93
2024-01-15T04:09:21.265Z,82.75
2024-01-15T04:09:53.249Z,82.69
2024-01-15T04:10:25.278Z,82.53
2024-01-15T04:10:57.186Z,82.66
2024-01-15T04:11:29.030Z,82.70
2024-01-15T04:12:00.834Z,82.15
2024-01-15T04:12:32.752Z,81.91
2024-01-15T04:13:04.803Z,82.43
2024-01-15T04:13:37.383Z,81.99
2024-01-15T04:14:10.113Z,81.88
2024-01-15T04:14:41.937Z,81.61
2024-01-15T04:15:13.996Z,82.15
2024-01-15T04:15:45.886Z,82.22
2024-01-15T04:16:17.760Z,82.14
2024-01-15T04:16:49.620Z,82.57
2024-01-15T04:17:22.938Z,82.34
2024-01-15T04:17:54.984Z,82.46
2024-01-15T04:18:26.860Z,82.38
2024-01-15T04:18:59.441Z,82.46
2024-01-15T04:19:31.351Z,82.43
2024-01-15T04:20:03.163Z,81.81
2024-01-15T04:20:34.913Z,81.59
2024-01-15T04:21:07.599Z,82.18
2024-01-15T04:21:39.820Z,81.59
2024-01-15T04:22:11.691Z,82.12
2024-01-15T04:22:45.086Z,82.19
2024-01-15T04:23:16.954Z,81.11
2024-01-15T04:23:48.716Z,82.06
2024-01-15T04:24:20.504Z,81.10
2024-01-15T04:24:52.391Z,82.02
2024-01-15T04:25:24.279Z,81.54
2024-01-15T04:25:56.165Z,81.33
2024-01-15T04:26:28.015Z,82.14
2024-01-15T04:27:00.057Z,81.39
2024-01-15T04:27:31.980Z,81.35
2024-01-15T04:28:03.898Z,81.08
2024-01-15T04:28:35.713Z,81.54
2024-01-15T04:29:07.650Z,81.63
2024-01-15T04:29:41.680Z,81.72
2024-01-15T04:30:14.257Z,81.88
2024-01-15T04:30:46.232Z,81.86
2024-01-15T04:31:28.416Z,81.72
2024-01-15T04:32:00.601Z,81.35
2024-01-15T04:32:32.493Z,81.66
2024-01-15T04:33:04.583Z,82.13
2024-01-15T04:33:36.736Z,81.02
2024-01-15T04:34:08.724Z,82.16
2024-01-15T04:34:40.740Z,81.97
2024-01-15T04:35:13.821Z,81.70
2024-01-15T04:35:45.656Z,81.77
2024-01-15T04:36:17.588Z,82.03
2024-01-15T04:36:49.742Z,81.62
2024-01-15T04:37:21.666Z,81.44
2024-01-15T04:37:53.981Z,81.97
2024-01-15T04:38:25.809Z,81.92
2024-01-15T04:38:57.581Z,80.93
2024-01-15T04:39:30.862Z,81.48
2024-01-15T04:40:05.166Z,81.21
2024-01-15T04:40:37.088Z,81.76
2024-01-15T04:41:14.885Z,80.63
2024-01-15T04:41:46.733Z,80.59
2024-01-15T04:42:18.569Z,80.99
2024-01-15T04:42:50.468Z,80.98
2024-01-15T04:43:22.429Z,80.32
2024-01-15T04:43:54.250Z,81.59
2024-01-15T04:44:26.078Z,80.84
2024-01-15T04:44:57.988Z,81.47
2024-01-15T04:45:30.174Z,80.75
2024-01-15T04:46:02.118Z,81.26
2024-01-15T04:46:33.918Z,81.43
2024-01-15T04:47:05.715Z,81.61
2024-01-15T04:47:38.071Z,81.56
2024-01-15T04:48:10.012Z,82.15
2024-01-15T04:48:41.920Z,82.23
2024-01-15T04:49:14.147Z,81.96
2024-01-15T04:49:46.135Z,81.87
2024-01-15T04:50:18.010Z,82.03
2024-01-15T04:50:49.822Z,82.20
2024-01-15T04:51:21.721Z,82.43
2024-01-15T04:51:53.592Z,82.06
2024-01-15T04:52:25.529Z,82.54
2024-01-15T04:52:57.336Z,82.87
2024-01-15T04:53:29.197Z,83.16
2024-01-15T04:54:01.002Z,83.56
2024-01-15T04:54:32.899Z,84.39
2024-01-15T04:55:04.894Z,83.46
2024-01-15T04:55:36.674Z,83.91
2024-01-15T04:56:08.601Z,84.28
2024-01-15T04:56:40.837Z,84.10
2024-01-15T04:57:12.787Z,84.34
2024-01-15T04:57:45.104Z,84.84
2024-01-15T04:58:17.027Z,84.76
2024-01-15T04:58:48.841Z,85.87
2024-01-15T04:59:20.645Z,85.13
2024-01-15T04:59:52.493Z,86.14
2024-01-15T05:00:24.354Z,85.74
2024-01-15T05:00:56.293Z,86.48
2024-01-15T05:01:32.735Z,85.53
2024-01-15T05:02:04.589Z,85.54
2024-01-15T05:02:36.486Z,85.96
2024-01-15T05:03:08.384Z,85.95
2024-01-15T05:03:40.460Z,85.38
2024-01-15T05:04:12.539Z,85.20
2024-01-15T05:04:44.454Z,85.32
2024-01-15T05:05:16.809Z,85.76
2024-01-15T05:05:48.741Z,85.96
2024-01-15T05:06:20.654Z,85.51
2024-01-15T05:06:52.602Z,85.88
2024-01-15T05:07:24.592Z,85.20
2024-01-15T05:07:56.470Z,85.47
2024-01-15T05:08:28.451Z,86.00
2024-01-15T05:09:00.671Z,85.27
2024-01-15T05:09:33.256Z,85.33
2024-01-15T05:10:05.755Z,86.09
2024-01-15T05:10:37.768Z,85.18
2024-01-15T05:11:09.621Z,85.81
2024-01-15T05:11:41.462Z,85.62
2024-01-15T05:12:13.499Z,85.34
2024-01-15T05:12:45.464Z,85.88
2024-01-15T05:13:17.329Z,85.18
2024-01-15T05:13:49.348Z,85.65
2024-01-15T05:14:21.122Z,85.62
2024-01-15T05:14:52.944Z,84.56
2024-01-15T05:15:24.801Z,85.18
2024-01-15T05:15:56.933Z,85.16
2024-01-15T05:16:28.796Z,84.69
2024-01-15T05:17:00.591Z,85.36
2024-01-15T05:17:32.414Z,84.15
2024-01-15T05:18:04.355Z,84.51
2024-01-15T05:18:38.437Z,83.99
2024-01-15T05:19:10.414Z,84.53
2024-01-15T05:19:42.372Z,84.33
2024-01-15T05:20:14.405Z,84.21
2024-01-15T05:20:46.355Z,84.30
2024-01-15T05:21:18.218Z,83.52
2024-01-15T05:21:50.139Z,83.85
2024-01-15T05:22:22.358Z,83.97
2024-01-15T05:22:54.175Z,84.98
2024-01-15T05:23:26.086Z,84.50
2024-01-15T05:23:57.856Z,83.95
2024-01-15T05:24:29.686Z,84.13
2024-01-15T05:25:01.567Z,83.96
2024-01-15T05:25:33.420Z,83.52
2024-01-15T05:26:05.365Z,83.69
2024-01-15T05:26:37.240Z,83.25
2024-01-15T05:27:09.084Z,83.50
2024-01-15T05:27:40.988Z,82.82
2024-01-15T05:28:13.003Z,83.07
2024-01-15T05:28:44.838Z,82.65
2024-01-15T05:29:16.652Z,82.97
2024-01-15T05:29:48.468Z,82.67
2024-01-15T05:30:20.363Z,83.61
2024-01-15T05:30:52.582Z,83.29
2024-01-15T05:31:24.572Z,82.72
2024-01-15T05:31:58.255Z,82.65
2024-01-15T05:32:31.986Z,83.31
2024-01-15T05:33:04.425Z,82.22
2024-01-15T05:33:36.313Z,82.33
2024-01-15T05:34:08.248Z,83.63
2024-01-15T05:34:40.583Z,83.88
2024-01-15T05:35:12.452Z,83.68
2024-01-15T05:35:44.415Z,83.46
2024-01-15T05:36:16.250Z,83.56
2024-01-15T05:36:49.227Z,84.16
2024-01-15T05:37:21.174Z,83.91
2024-01-15T05:37:52.950Z,83.76
2024-01-15T05:38:24.874Z,84.42
2024-01-15T05:38:56.736Z,83.29
2024-01-15T05:39:28.636Z,83.95
2024-01-15T05:40:00.622Z,83.33
2024-01-15T05:40:32.680Z,83.88
2024-01-15T05:41:04.596Z,83.74
2024-01-15T05:41:36.416Z,83.48
2024-01-15T05:42:08.221Z,83.60
2024-01-15T05:42:41.015Z,83.54
2024-01-15T05:43:12.879Z,83.81
2024-01-15T05:43:44.702Z,83.56
2024-01-15T05:44:16.549Z,82.83
2024-01-15T05:44:48.389Z,83.24
2024-01-15T05:45:20.264Z,82.94
2024-01-15T05:45:52.334Z,83.34
2024-01-15T05:46:24.241Z,83.23
2024-01-15T05:46:56.038Z,83.23
2024-01-15T05:47:27.933Z,83.15
2024-01-15T05:47:59.887Z,83.05
2024-01-15T05:48:31.962Z,82.51
2024-01-15T05:49:03.908Z,82.50
2024-01-15T05:49:35.919Z,82.22
2024-01-15T05:50:08.160Z,82.35
2024-01-15T05:50:40.057Z,81.87
2024-01-15T05:51:11.898Z,82.00
2024-01-15T05:51:43.805Z,82.01
2024-01-15T05:52:15.771Z,82.34
2024-01-15T05:52:47.687Z,81.95
2024-01-15T05:53:19.471Z,81.76
2024-01-15T05:53:52.675Z,81.97
2024-01-15T05:54:24.925Z,81.90
2024-01-15T05:54:56.745Z,82.33
2024-01-15T05:55:28.553Z,81.61
2024-01-15T05:56:00.613Z,82.40
2024-01-15T05:56:32.461Z,82.53
2024-01-15T05:57:04.488Z,81.78
2024-01-15T05:57:36.315Z,82.02
2024-01-15T05:58:08.172Z,81.56
2024-01-15T05:58:39.930Z,82.37
2024-01-15T05:59:15.110Z,82.54
2024-01-15T05:59:47.804Z,82.09
2024-01-15T06:00:19.959Z,82.53
2024-01-15T06:00:52.009Z,82.66
2024-01-15T06:01:23.987Z,82.39
2024-01-15T06:01:56.103Z,82.26
2024-01-15T06:02:27.939Z,82.51
2024-01-15T06:03:00.568Z,82.62
2024-01-15T06:03:32.627Z,82.18
2024-01-15T06:04:04.810Z,82.36
2024-01-15T06:04:36.834Z,82.16
2024-01-15T06:05:08.674Z,82.64
2024-01-15T06:05:40.940Z,82.61
2024-01-15T06:06:13.041Z,82.30
2024-01-15T06:06:44.889Z,82.09
2024-01-15T06:07:20.638Z,81.78
2024-01-15T06:07:55.200Z,81.73
2024-01-15T06:08:40.287Z,82.17
2024-01-15T06:09:18.204Z,82.21
2024-01-15T06:09:50.412Z,82.06
2024-01-15T06:10:22.413Z,82.13
2024-01-15T06:10:54.345Z,82.37
2024-01-15T06:11:31.158Z,82.20
2024-01-15T06:12:02.917Z,82.49
2024-01-15T06:12:35.025Z,82.54
2024-01-15T06:13:06.966Z,82.36
2024-01-15T06:13:38.820Z,86.03
2024-01-15T06:14:10.631Z,86.34
2024-01-15T06:14:43.755Z,84.92
2024-01-15T06:15:15.599Z,83.56
2024-01-15T06:15:47.547Z,82.62
2024-01-15T06:16:21.270Z,82.26
2024-01-15T06:16:53.876Z,81.59
2024-01-15T06:17:25.768Z,82.07
2024-01-15T06:17:57.673Z,82.33
2024-01-15T06:18:29.643Z,82.16
2024-01-15T06:19:01.719Z,81.83
2024-01-15T06:19:33.785Z,81.60
2024-01-15T06:20:06.742Z,80.95
2024-01-15T06:20:39.398Z,81.36
2024-01-15T06:21:13.940Z,80.61
2024-01-15T06:21:45.908Z,81.40
2024-01-15T06:22:17.739Z,81.57
2024-01-15T06:22:49.501Z,81.70
2024-01-15T06:23:21.725Z,80.76
2024-01-15T06:23:53.733Z,80.89
2024-01-15T06:24:25.683Z,80.76
2024-01-15T06:24:57.649Z,81.70
2024-01-15T06:25:29.612Z,81.05
2024-01-15T06:26:01.450Z,80.89
2024-01-15T06:26:33.289Z,81.52
2024-01-15T06:27:05.274Z,81.29
2024-01-15T06:27:37.202Z,81.34
2024-01-15T06:28:09.043Z,82.11
2024-01-15T06:28:40.942Z,81.52
2024-01-15T06:29:12.866Z,82.29
2024-01-15T06:29:51.109Z,82.42
2024-01-15T06:30:23.516Z,82.15
2024-01-15T06:30:55.697Z,82.46
2024-01-15T06:31:27.777Z,81.63
2024-01-15T06:31:59.777Z,81.64
2024-01-15T06:32:31.730Z,82.33
2024-01-15T06:33:03.761Z,83.12
2024-01-15T06:33:35.695Z,82.31
2024-01-15T06:34:07.746Z,82.89
2024-01-15T06:34:39.704Z,82.78
2024-01-15T06:35:12.823Z,82.77
2024-01-15T06:35:44.784Z,82.29
2024-01-15T06:36:17.525Z,82.54
2024-01-15T06:36:49.474Z,82.95
2024-01-15T06:37:21.538Z,82.50
2024-01-15T06:37:53.380Z,83.02
2024-01-15T06:38:26.208Z,86.34
2024-01-15T06:38:58.042Z,87.30
2024-01-15T06:39:29.862Z,86.87
2024-01-15T06:40:01.829Z,86.02
2024-01-15T06:40:33.696Z,84.89
2024-01-15T06:41:05.526Z,84.50
2024-01-15T06:41:44.908Z,84.06
2024-01-15T06:42:16.945Z,84.11
2024-01-15T06:42:48.832Z,84.48
2024-01-15T06:43:20.657Z,83.72
2024-01-15T06:43:52.428Z,84.20
2024-01-15T06:44:24.373Z,83.23
2024-01-15T06:44:56.279Z,84.26
2024-01-15T06:45:28.193Z,83.73
2024-01-15T06:46:02.082Z,82.92
2024-01-15T06:46:36.171Z,83.34
2024-01-15T06:47:08.015Z,82.98
2024-01-15T06:47:40.150Z,82.58
2024-01-15T06:48:15.445Z,82.85
2024-01-15T06:48:47.355Z,83.25
2024-01-15T06:49:19.410Z,83.32
2024-01-15T06:49:53.077Z,83.19
2024-01-15T06:50:25.401Z,83.34
2024-01-15T06:50:57.493Z,83.30
2024-01-15T06:51:30.691Z,82.74
2024-01-15T06:52:02.690Z,83.57
2024-01-15T06:52:34.513Z,83.05
2024-01-15T06:53:06.373Z,82.63
2024-01-15T06:53:38.886Z,83.51
2024-01-15T06:54:13.494Z,83.03
2024-01-15T06:54:45.426Z,83.77
2024-01-15T06:55:17.310Z,83.79
2024-01-15T06:55:50.460Z,83.13